createdAt,value
2023-03-31T00:02:15.423Z,5.00
2023-03-31T00:04:53.010Z,2.90
2023-03-31T00:07:24.993Z,3.75
2023-03-31T00:10:06.854Z,3.75
2023-03-31T00:12:37.431Z,3.67
2023-03-31T00:15:04.541Z,3.88
2023-03-31T00:17:33.517Z,3.13
2023-03-31T00:20:05.000Z,3.58
2023-03-31T00:22:32.030Z,2.80
2023-03-31T00:24:58.761Z,3.50
2023-03-31T00:27:25.553Z,4.47
2023-03-31T00:29:53.311Z,3.35
2023-03-31T00:32:19.987Z,2.97
2023-03-31T00:34:46.777Z,2.72
2023-03-31T00:37:15.014Z,3.05
2023-03-31T00:39:42.415Z,3.10
2023-03-31T00:42:13.147Z,4.00
2023-03-31T00:45:14.819Z,3.33
2023-03-31T00:47:44.775Z,2.40
2023-03-31T00:52:54.365Z,4.45
2023-03-31T00:55:27.793Z,2.92
2023-03-31T00:57:55.438Z,3.55
2023-03-31T01:00:24.350Z,3.03
2023-03-31T01:03:01.843Z,2.88
2023-03-31T01:05:42.420Z,2.47
2023-03-31T01:08:10.359Z,3.95
2023-03-31T01:10:42.222Z,2.97
2023-03-31T01:13:15.056Z,2.70
2023-03-31T01:15:42.786Z,3.50
2023-03-31T01:18:11.659Z,3.20
2023-03-31T01:21:47.494Z,2.83
2023-03-31T01:24:16.884Z,3.28
2023-03-31T01:26:53.386Z,4.53
2023-03-31T01:29:44.952Z,3.47
2023-03-31T01:32:29.713Z,3.55
2023-03-31T01:35:14.268Z,4.32
2023-03-31T01:37:49.894Z,3.17
2023-03-31T01:40:48.251Z,3.40
2023-03-31T01:43:23.605Z,3.42
2023-03-31T01:46:11.248Z,3.40
2023-03-31T01:48:44.052Z,3.97
2023-03-31T01:51:18.098Z,3.65
2023-03-31T01:53:59.902Z,3.00
2023-03-31T01:56:34.524Z,3.00
2023-03-31T01:59:04.989Z,4.07
2023-03-31T02:01:38.221Z,3.60
2023-03-31T02:04:15.104Z,3.78
2023-03-31T02:06:47.102Z,3.85
2023-03-31T02:09:17.757Z,3.10
2023-03-31T02:11:46.675Z,3.25
2023-03-31T02:14:19.485Z,4.20
2023-03-31T02:16:50.425Z,11.48
2023-03-31T02:19:20.922Z,4.07
2023-03-31T02:21:50.112Z,3.72
2023-03-31T02:24:20.183Z,4.10
2023-03-31T02:29:21.870Z,4.10
2023-03-31T02:32:14.888Z,4.43
2023-03-31T02:34:41.788Z,4.13
2023-03-31T02:37:08.670Z,3.70
2023-03-31T02:39:39.094Z,4.28
2023-03-31T02:42:09.099Z,4.20
2023-03-31T02:47:09.535Z,4.07
2023-03-31T02:52:17.126Z,3.55
2023-03-31T02:55:02.114Z,4.20
2023-03-31T02:57:50.196Z,5.05
2023-03-31T03:00:42.353Z,3.28
2023-03-31T03:03:24.337Z,4.88
2023-03-31T03:05:59.082Z,4.80
2023-03-31T03:08:34.794Z,4.78
2023-03-31T03:11:26.627Z,4.00
2023-03-31T03:13:58.974Z,4.05
2023-03-31T03:16:53.962Z,4.40
2023-03-31T03:19:22.906Z,5.43
2023-03-31T03:21:50.606Z,3.63
2023-03-31T03:24:18.325Z,15.07
2023-03-31T03:26:46.044Z,4.82
2023-03-31T03:29:16.150Z,5.00
2023-03-31T03:34:10.039Z,3.28
2023-03-31T03:36:38.103Z,2.88
2023-03-31T03:39:07.832Z,4.03
2023-03-31T03:41:34.927Z,4.07
2023-03-31T03:44:01.707Z,4.30
2023-03-31T03:46:28.642Z,4.20
2023-03-31T03:48:56.189Z,4.30
2023-03-31T03:51:23.456Z,4.40
2023-03-31T03:53:50.338Z,3.67
2023-03-31T03:56:17.047Z,4.18
2023-03-31T03:58:43.774Z,3.70
2023-03-31T04:01:10.825Z,3.88
2023-03-31T04:03:37.534Z,3.25
2023-03-31T04:06:04.798Z,3.80
2023-03-31T04:08:32.057Z,3.47
2023-03-31T04:10:58.798Z,4.05
2023-03-31T04:13:25.472Z,3.20
2023-03-31T04:15:52.173Z,3.28
2023-03-31T04:18:23.361Z,3.70
2023-03-31T04:21:04.342Z,3.70
2023-03-31T04:23:42.814Z,2.92
2023-03-31T04:26:10.233Z,4.47
2023-03-31T04:28:37.984Z,3.05
2023-03-31T04:31:09.644Z,3.38
2023-03-31T04:33:39.468Z,4.25
2023-03-31T04:36:18.063Z,2.78
2023-03-31T04:38:51.347Z,3.50
2023-03-31T04:41:18.338Z,5.07
2023-03-31T04:43:45.578Z,2.78
2023-03-31T04:46:12.547Z,3.35
2023-03-31T04:48:39.318Z,4.00
2023-03-31T04:51:06.208Z,3.42
2023-03-31T04:53:32.994Z,3.55
2023-03-31T04:55:59.756Z,4.93
2023-03-31T04:58:26.519Z,4.10
2023-03-31T05:00:53.722Z,4.30
2023-03-31T05:03:20.780Z,4.40
2023-03-31T05:05:47.657Z,4.95
2023-03-31T05:08:14.384Z,4.70
2023-03-31T05:10:41.066Z,4.32
2023-03-31T05:13:11.307Z,4.65
2023-03-31T05:15:39.642Z,4.65
2023-03-31T05:18:07.561Z,5.40
2023-03-31T05:20:34.761Z,5.20
2023-03-31T05:23:02.206Z,4.70
2023-03-31T05:25:33.089Z,4.53
2023-03-31T05:28:01.043Z,23.17
2023-03-31T05:30:28.950Z,5.13
2023-03-31T05:32:56.244Z,5.32
2023-03-31T05:35:23.250Z,5.68
2023-03-31T05:37:50.045Z,5.72
2023-03-31T05:40:16.908Z,5.22
2023-03-31T05:42:43.656Z,5.47
2023-03-31T05:45:10.774Z,5.95
2023-03-31T05:47:37.499Z,5.50
2023-03-31T05:50:08.080Z,6.18
2023-03-31T05:52:36.217Z,5.90
2023-03-31T05:55:04.565Z,4.05
2023-03-31T05:57:31.687Z,5.32
2023-03-31T05:59:58.638Z,4.35
2023-03-31T06:02:25.513Z,6.18
2023-03-31T06:04:52.385Z,4.50
2023-03-31T06:07:19.408Z,6.40
2023-03-31T06:09:46.756Z,7.32
2023-03-31T06:12:13.966Z,5.38
2023-03-31T06:14:40.748Z,6.40
2023-03-31T06:17:07.680Z,5.30
2023-03-31T06:19:34.660Z,5.22
2023-03-31T06:22:01.732Z,5.28
2023-03-31T06:24:28.515Z,5.00
2023-03-31T06:26:55.394Z,5.65
2023-03-31T06:29:22.284Z,3.63
2023-03-31T06:31:49.060Z,6.85
2023-03-31T06:34:16.324Z,8.27
2023-03-31T06:36:44.057Z,10.00
2023-03-31T06:39:10.760Z,10.75
2023-03-31T06:41:39.097Z,9.82
2023-03-31T06:44:05.934Z,7.57
2023-03-31T06:46:32.704Z,8.68
2023-03-31T06:48:59.417Z,8.82
2023-03-31T06:51:26.100Z,8.27
2023-03-31T06:53:52.869Z,9.48
2023-03-31T06:56:19.514Z,9.70
2023-03-31T06:58:46.252Z,9.95
2023-03-31T07:01:12.902Z,9.75
2023-03-31T07:03:39.769Z,8.32
2023-03-31T07:06:06.734Z,7.97
2023-03-31T07:08:33.499Z,7.70
2023-03-31T07:11:02.574Z,9.18
2023-03-31T07:13:29.723Z,8.75
2023-03-31T07:15:56.778Z,8.90
2023-03-31T07:18:26.445Z,7.80
2023-03-31T07:20:53.387Z,8.38
2023-03-31T07:23:21.052Z,6.88
2023-03-31T07:25:48.663Z,6.45
2023-03-31T07:28:16.430Z,7.20
2023-03-31T07:30:43.198Z,7.20
2023-03-31T07:33:10.091Z,5.25
2023-03-31T07:35:41.603Z,6.63
2023-03-31T07:38:10.552Z,6.63
2023-03-31T07:40:37.997Z,7.68
2023-03-31T07:43:06.468Z,7.63
2023-03-31T07:45:33.734Z,8.70
2023-03-31T07:48:00.766Z,8.40
2023-03-31T07:50:27.771Z,8.32
2023-03-31T07:52:54.615Z,9.35
2023-03-31T07:55:21.528Z,5.35
2023-03-31T07:57:48.328Z,6.13
2023-03-31T08:00:16.300Z,7.50
2023-03-31T08:02:43.853Z,9.80
2023-03-31T08:05:16.512Z,9.35
2023-03-31T08:07:46.179Z,8.75
2023-03-31T08:10:19.566Z,6.95
2023-03-31T08:12:46.439Z,9.07
2023-03-31T08:15:13.123Z,10.60
2023-03-31T08:17:40.147Z,12.40
2023-03-31T08:20:08.295Z,7.57
2023-03-31T08:22:35.195Z,9.55
2023-03-31T08:25:01.928Z,9.35
2023-03-31T08:27:28.753Z,11.02
2023-03-31T08:29:55.471Z,11.68
2023-03-31T08:32:24.551Z,10.05
2023-03-31T08:34:51.830Z,12.75
2023-03-31T08:37:18.678Z,13.43
2023-03-31T08:39:45.826Z,8.60
2023-03-31T08:42:33.668Z,11.95
2023-03-31T08:45:07.191Z,14.52
2023-03-31T08:47:37.215Z,13.63
2023-03-31T08:50:26.118Z,8.25
2023-03-31T08:53:09.243Z,8.90
2023-03-31T08:55:51.870Z,15.25
2023-03-31T08:58:36.467Z,11.27
2023-03-31T09:01:21.898Z,14.88
2023-03-31T09:04:06.363Z,10.23
2023-03-31T09:06:38.412Z,15.35
2023-03-31T09:09:11.660Z,16.45
2023-03-31T09:12:00.612Z,12.05
2023-03-31T09:14:36.364Z,16.60
2023-03-31T09:17:26.570Z,16.67
2023-03-31T09:20:00.169Z,13.77
2023-03-31T09:22:36.056Z,14.93
2023-03-31T09:25:15.080Z,12.73
2023-03-31T09:27:44.397Z,16.60
2023-03-31T09:30:33.439Z,14.40
2023-03-31T09:33:02.937Z,9.98
2023-03-31T09:35:33.961Z,12.77
2023-03-31T09:38:00.766Z,12.68
2023-03-31T09:40:28.919Z,7.45
2023-03-31T09:43:05.171Z,10.68
2023-03-31T09:45:34.205Z,11.82
2023-03-31T09:48:11.653Z,11.50
2023-03-31T09:50:47.868Z,12.60
2023-03-31T09:56:02.063Z,11.38
2023-03-31T09:58:28.909Z,10.15
2023-03-31T10:01:01.015Z,11.82
2023-03-31T10:03:29.711Z,10.23
2023-03-31T10:05:59.123Z,9.18
2023-03-31T10:08:38.574Z,12.05
2023-03-31T10:11:05.461Z,11.50
2023-03-31T10:13:59.484Z,9.98
2023-03-31T10:16:44.306Z,9.88
2023-03-31T10:19:28.013Z,8.43
2023-03-31T10:22:06.723Z,5.97
2023-03-31T10:24:43.322Z,4.47
2023-03-31T10:27:31.764Z,7.70
2023-03-31T10:32:35.625Z,4.88
2023-03-31T10:35:36.612Z,7.32
2023-03-31T10:38:14.256Z,7.53
2023-03-31T10:40:43.260Z,4.65
2023-03-31T10:43:14.847Z,5.50
2023-03-31T10:46:00.286Z,5.25
2023-03-31T10:48:32.668Z,5.53
2023-03-31T10:51:19.688Z,4.80
2023-03-31T10:53:52.261Z,4.82
2023-03-31T10:56:42.108Z,3.70
2023-03-31T10:59:33.364Z,3.72
2023-03-31T11:02:18.890Z,3.55
2023-03-31T11:05:14.396Z,3.90
2023-03-31T11:07:48.299Z,3.20
2023-03-31T11:10:30.578Z,4.15
2023-03-31T11:15:58.005Z,2.80
2023-03-31T11:18:52.517Z,2.00
2023-03-31T11:21:36.563Z,3.30
2023-03-31T11:24:09.081Z,2.60
2023-03-31T11:26:53.920Z,2.83
2023-03-31T11:29:20.645Z,1.88
2023-03-31T11:32:05.147Z,2.92
2023-03-31T11:34:50.530Z,3.53
2023-03-31T11:37:23.253Z,3.47
2023-03-31T11:40:20.774Z,2.80
2023-03-31T11:43:02.549Z,3.20
2023-03-31T11:45:34.882Z,2.40
2023-03-31T11:48:08.209Z,2.30
2023-03-31T11:50:40.118Z,3.05
2023-03-31T11:53:16.678Z,2.38
2023-03-31T11:55:45.847Z,2.90
2023-03-31T11:58:22.010Z,2.50
2023-03-31T12:03:33.620Z,2.00
2023-03-31T12:06:12.867Z,2.45
2023-03-31T12:08:42.858Z,1.98
2023-03-31T12:11:15.455Z,2.30
2023-03-31T12:13:56.435Z,1.05
2023-03-31T12:16:38.786Z,2.17
2023-03-31T12:19:17.397Z,1.77
2023-03-31T12:21:50.964Z,2.30
2023-03-31T12:24:17.660Z,2.08
2023-03-31T12:27:22.627Z,3.00
2023-03-31T12:29:54.930Z,2.67
2023-03-31T12:32:28.039Z,1.77
2023-03-31T12:35:00.916Z,1.88
2023-03-31T12:37:58.713Z,3.03
2023-03-31T12:40:53.016Z,1.98
2023-03-31T12:43:19.626Z,1.98
2023-03-31T12:46:18.186Z,2.10
2023-03-31T12:48:57.032Z,2.10
2023-03-31T12:51:42.476Z,2.20
2023-03-31T12:54:30.097Z,2.00
2023-03-31T12:57:08.725Z,2.38
2023-03-31T12:59:37.752Z,2.25
2023-03-31T13:02:10.752Z,2.80
2023-03-31T13:04:38.644Z,3.30
2023-03-31T13:07:25.329Z,2.80
2023-03-31T13:10:00.233Z,2.50
2023-03-31T13:12:31.128Z,2.53
2023-03-31T13:15:00.700Z,2.78
2023-03-31T13:17:32.407Z,3.22
2023-03-31T13:20:38.250Z,2.85
2023-03-31T13:23:07.853Z,2.25
2023-03-31T13:25:45.615Z,3.10
2023-03-31T13:28:21.407Z,2.70
2023-03-31T13:30:52.547Z,2.72
2023-03-31T13:33:28.758Z,1.95
2023-03-31T13:36:34.029Z,2.05
2023-03-31T13:39:19.636Z,2.15
2023-03-31T13:42:04.757Z,2.45
2023-03-31T13:44:57.708Z,2.53
2023-03-31T13:47:49.558Z,3.13
2023-03-31T13:50:36.865Z,3.28
2023-03-31T13:53:22.020Z,2.08
2023-03-31T13:56:10.628Z,3.88
2023-03-31T13:58:46.979Z,3.13
2023-03-31T14:01:51.351Z,3.10
2023-03-31T14:04:58.478Z,3.42
2023-03-31T14:09:59.888Z,3.92
2023-03-31T14:12:38.131Z,4.82
2023-03-31T14:15:07.230Z,4.43
2023-03-31T14:17:37.521Z,4.70
2023-03-31T14:20:16.266Z,4.55
2023-03-31T14:22:56.689Z,4.20
2023-03-31T14:26:00.868Z,4.18
2023-03-31T14:28:44.961Z,4.10
2023-03-31T14:31:37.654Z,4.00
2023-03-31T14:34:13.563Z,3.60
2023-03-31T14:36:59.131Z,4.18
2023-03-31T14:39:43.460Z,3.08
2023-03-31T14:42:14.173Z,2.70
2023-03-31T14:44:42.966Z,3.15
2023-03-31T14:47:21.485Z,4.38
2023-03-31T14:49:48.517Z,3.28
2023-03-31T14:52:19.682Z,4.47
2023-03-31T14:54:50.092Z,3.50
2023-03-31T14:57:25.936Z,4.07
2023-03-31T14:59:54.216Z,4.10
2023-03-31T15:02:32.794Z,4.85
2023-03-31T15:05:03.375Z,4.57
2023-03-31T15:07:30.672Z,5.60
2023-03-31T15:09:57.730Z,5.15
2023-03-31T15:12:25.152Z,6.03
2023-03-31T15:14:57.584Z,5.30
2023-03-31T15:17:35.122Z,5.93
2023-03-31T15:20:20.820Z,5.65
2023-03-31T15:22:47.544Z,0.75
2023-03-31T15:25:16.967Z,0.95
2023-03-31T15:27:48.625Z,1.15
2023-03-31T15:30:19.363Z,0.63
2023-03-31T15:32:46.730Z,0.80
2023-03-31T15:35:30.779Z,0.82
2023-03-31T15:37:59.719Z,0.80
2023-03-31T15:40:40.434Z,1.70
2023-03-31T15:45:57.300Z,1.40
2023-03-31T15:48:37.872Z,1.58
2023-03-31T15:51:19.392Z,1.88
2023-03-31T15:53:48.537Z,2.70
2023-03-31T15:56:43.952Z,2.20
2023-03-31T15:59:34.304Z,2.22
2023-03-31T16:02:06.086Z,2.17
2023-03-31T16:04:33.613Z,3.22
2023-03-31T16:07:05.754Z,2.70
2023-03-31T16:09:47.629Z,2.42
2023-03-31T16:12:25.338Z,1.80
2023-03-31T16:15:14.402Z,2.03
2023-03-31T16:17:54.407Z,1.98
2023-03-31T16:20:37.671Z,2.25
2023-03-31T16:23:15.200Z,2.55
2023-03-31T16:25:42.585Z,3.42
2023-03-31T16:28:20.724Z,2.83
2023-03-31T16:30:47.683Z,3.17
2023-03-31T16:33:16.258Z,2.67
2023-03-31T16:35:45.187Z,2.83
2023-03-31T16:38:16.340Z,2.75
2023-03-31T16:40:47.953Z,3.00
2023-03-31T16:43:19.980Z,3.40
2023-03-31T16:45:48.556Z,3.40
2023-03-31T16:48:17.698Z,2.90
2023-03-31T16:50:49.783Z,3.15
2023-03-31T16:53:19.089Z,4.20
2023-03-31T16:55:46.040Z,4.53
2023-03-31T16:58:13.075Z,5.20
2023-03-31T17:00:40.969Z,4.75
2023-03-31T17:03:10.434Z,5.65
2023-03-31T17:05:45.916Z,6.22
2023-03-31T17:08:14.029Z,7.05
2023-03-31T17:10:41.646Z,8.55
2023-03-31T17:13:09.412Z,8.50
2023-03-31T17:15:36.924Z,7.80
2023-03-31T17:18:04.500Z,9.55
2023-03-31T17:20:31.931Z,5.18
2023-03-31T17:22:58.919Z,4.55
2023-03-31T17:25:25.929Z,4.78
2023-03-31T17:27:53.074Z,3.75
2023-03-31T17:30:19.835Z,4.82
2023-03-31T17:32:46.600Z,2.30
2023-03-31T17:35:20.710Z,2.35
2023-03-31T17:37:50.846Z,2.65
2023-03-31T17:40:17.661Z,2.45
2023-03-31T17:42:44.984Z,5.90
2023-03-31T17:45:12.957Z,3.28
2023-03-31T17:47:40.079Z,3.08
2023-03-31T17:50:08.935Z,2.83
2023-03-31T17:52:36.293Z,3.63
2023-03-31T17:55:04.437Z,3.35
2023-03-31T17:57:31.997Z,4.20
2023-03-31T17:59:58.943Z,4.55
2023-03-31T18:02:25.855Z,5.78
2023-03-31T18:04:52.749Z,4.20
2023-03-31T18:07:19.555Z,4.07
2023-03-31T18:09:46.275Z,1.92
2023-03-31T18:12:13.001Z,2.75
2023-03-31T18:14:39.755Z,2.53
2023-03-31T18:17:07.006Z,2.65
2023-03-31T18:19:33.724Z,2.72
2023-03-31T18:22:00.481Z,2.67
2023-03-31T18:24:27.340Z,1.42
2023-03-31T18:26:54.048Z,1.75
2023-03-31T18:29:21.047Z,2.50
2023-03-31T18:31:47.960Z,2.30
2023-03-31T18:34:16.477Z,1.85
2023-03-31T18:36:43.755Z,2.63
2023-03-31T18:39:10.976Z,2.08
2023-03-31T18:41:44.125Z,2.35
2023-03-31T18:44:11.710Z,2.35
2023-03-31T18:46:38.742Z,2.33
2023-03-31T18:49:06.046Z,2.03
2023-03-31T18:51:33.234Z,2.28
2023-03-31T18:53:59.929Z,1.90
2023-03-31T18:56:26.654Z,2.28
2023-03-31T18:58:54.037Z,2.25
2023-03-31T19:01:20.923Z,1.75
2023-03-31T19:03:47.886Z,2.60
2023-03-31T19:06:16.592Z,2.60
2023-03-31T19:08:43.657Z,1.95
2023-03-31T19:11:13.091Z,2.20
2023-03-31T19:13:42.306Z,2.70
2023-03-31T19:16:10.135Z,2.55
2023-03-31T19:18:36.865Z,3.10
2023-03-31T19:21:03.953Z,2.58
2023-03-31T19:23:31.861Z,3.33
2023-03-31T19:25:59.812Z,2.75
2023-03-31T19:28:27.827Z,3.10
2023-03-31T19:30:56.851Z,3.60
2023-03-31T19:33:24.663Z,7.97
2023-03-31T19:35:51.980Z,2.63
2023-03-31T19:38:19.250Z,3.22
2023-03-31T19:40:46.161Z,4.70
2023-03-31T19:43:23.271Z,6.25
2023-03-31T19:45:53.099Z,6.20
2023-03-31T19:50:51.964Z,6.03
2023-03-31T19:53:20.024Z,8.15
2023-03-31T19:56:08.396Z,8.02
2023-03-31T19:58:36.456Z,5.03
2023-03-31T20:01:05.561Z,6.75
2023-03-31T20:03:33.267Z,4.95
2023-03-31T20:06:14.891Z,5.82
2023-03-31T20:08:43.063Z,5.20
2023-03-31T20:11:12.443Z,7.28
2023-03-31T20:13:40.073Z,4.63
2023-03-31T20:16:09.818Z,4.15
2023-03-31T20:18:37.673Z,4.28
2023-03-31T20:21:04.691Z,4.20
2023-03-31T20:23:32.395Z,3.55
2023-03-31T20:26:01.125Z,3.88
2023-03-31T20:28:29.192Z,4.20
2023-03-31T20:30:56.402Z,3.92
2023-03-31T20:33:24.748Z,3.45
2023-03-31T20:36:07.121Z,4.13
2023-03-31T20:41:01.498Z,4.95
2023-03-31T20:43:28.814Z,5.22
2023-03-31T20:46:04.193Z,4.97
2023-03-31T20:48:48.154Z,4.90
2023-03-31T20:51:17.437Z,4.90
2023-03-31T20:53:45.897Z,5.20
2023-03-31T20:56:16.795Z,5.28
2023-03-31T20:58:44.325Z,5.43
2023-03-31T21:01:12.360Z,5.13
2023-03-31T21:03:39.281Z,4.15
2023-03-31T21:06:11.279Z,4.00
2023-03-31T21:08:39.179Z,3.80
2023-03-31T21:11:06.504Z,3.80
2023-03-31T21:13:33.710Z,3.88
2023-03-31T21:16:01.902Z,4.10
2023-03-31T21:18:30.535Z,4.13
2023-03-31T21:21:00.022Z,4.00
2023-03-31T21:23:28.493Z,4.60
2023-03-31T21:25:59.228Z,4.13
2023-03-31T21:28:29.807Z,3.65
2023-03-31T21:31:01.375Z,4.40
2023-03-31T21:33:29.821Z,3.78
2023-03-31T21:35:57.192Z,4.00
2023-03-31T21:38:24.438Z,4.00
2023-03-31T21:40:52.409Z,3.90
2023-03-31T21:43:20.080Z,4.10
2023-03-31T21:45:47.545Z,3.22
2023-03-31T21:48:15.036Z,4.10
2023-03-31T21:50:42.199Z,4.38
2023-03-31T21:53:10.992Z,4.68
2023-03-31T21:55:38.519Z,5.53
2023-03-31T21:58:08.241Z,5.13
2023-03-31T22:00:36.315Z,7.05
2023-03-31T22:03:22.231Z,6.38
2023-03-31T22:05:49.796Z,5.15
2023-03-31T22:08:16.689Z,5.63
2023-03-31T22:10:47.902Z,6.25
2023-03-31T22:13:14.549Z,5.95
2023-03-31T22:15:42.438Z,5.38
2023-03-31T22:18:09.168Z,5.65
2023-03-31T22:20:35.979Z,6.15
2023-03-31T22:23:02.658Z,5.32
2023-03-31T22:25:29.700Z,6.45
2023-03-31T22:27:56.637Z,6.43
2023-03-31T22:30:23.915Z,6.25
2023-03-31T22:32:51.318Z,6.40
2023-03-31T22:35:18.286Z,6.07
2023-03-31T22:37:45.007Z,5.97
2023-03-31T22:40:11.823Z,6.20
2023-03-31T22:42:38.849Z,6.82
2023-03-31T22:45:06.579Z,6.72
2023-03-31T22:47:33.274Z,6.93
2023-03-31T22:50:00.043Z,6.47
2023-03-31T22:52:27.450Z,6.43
2023-03-31T22:54:54.133Z,6.78
2023-03-31T22:57:20.979Z,6.82
2023-03-31T22:59:47.680Z,6.82
2023-03-31T23:02:14.315Z,7.05
2023-03-31T23:04:41.161Z,7.47
2023-03-31T23:07:07.876Z,7.10
2023-03-31T23:09:34.780Z,7.70
2023-03-31T23:12:03.945Z,7.38
2023-03-31T23:14:30.889Z,7.18
2023-03-31T23:16:57.768Z,7.20
2023-03-31T23:19:24.643Z,7.93
2023-03-31T23:21:51.584Z,7.65
2023-03-31T23:24:19.975Z,7.35
2023-03-31T23:26:47.074Z,9.07
2023-03-31T23:29:13.837Z,8.38
2023-03-31T23:31:40.624Z,8.57
2023-03-31T23:34:07.506Z,8.88
2023-03-31T23:36:34.283Z,8.77
2023-03-31T23:39:00.981Z,9.13
2023-03-31T23:41:27.735Z,8.40
2023-03-31T23:43:54.910Z,8.48
2023-03-31T23:46:21.890Z,9.48
2023-03-31T23:48:48.844Z,8.75
2023-03-31T23:51:15.664Z,9.30
2023-03-31T23:53:42.445Z,8.60
2023-03-31T23:56:12.300Z,9.18
2023-03-31T23:58:40.403Z,8.80
